Aérodrome :
LOGIN :

S'inscrire | Disclaimer

   EN    FR    IT 

 










Légende :    VFR   VFR Marginal   IFR   IFR Intensif   IFR Très Intensif
Visi : 
Plafond : 
>= 8 km
>= 3000ft
5 à 8 km
1000 à 3000 ft
1500m à 5 km
500 à 1000 ft
800 à 1500m
200 à 500 ft
< 800m
< 200 ft
Symboles :   Orages  Brouillard  Fortes neiges  Fortes précipitations  Vent > 20 kt
SIGMETs :   Divers  Orages  Givrage  Turbulence  Onde Orograph.  Cendres Volcan.






- Altitude de l'aérodrome : 25 ft
- Code IATA : QCY


EGXC - RAF Coningsby

DERNIER METAR :
  • 211550Z 36007KT 9999 BKN016 17/13 Q1009 TEMPO BKN014 RMK WHT TEMPO GRN

METARs EXPIRÉS :
  • 211520Z 02006KT 9999 BKN015 17/13 Q1009 TEMPO BKN014 RMK WHT TEMPO GRN
  • 211450Z 03006KT 9999 BKN015 17/13 Q1009 NOSIG RMK WHT WHT
  • 211420Z 03006KT 9999 BKN017 17/13 Q1009 NOSIG RMK WHT WHT
  • 211350Z 02006KT 9999 BKN017 18/13 Q1009 TEMPO FEW017 RMK WHT TEMPO BLU
  • 211320Z 01008KT 9999 BKN017 BKN200 17/12 Q1009 TEMPO FEW018 RMK WHT TEMPO BLU
  • 211250Z 02008KT 9999 BKN018 BKN180 17/12 Q1010 TEMPO FEW020 RMK WHT TEMPO BLU
  • 211220Z 02009KT 9999 SCT018 BKN180 17/12 Q1010 TEMPO FEW020 RMK WHT TEMPO BLU
  • 211150Z 05010KT 9999 FEW020 SCT030 BKN180 17/11 Q1010 TEMPO SCT020 RMK BLU TEMPO WHT
  • 211120Z 03008KT 9999 FEW020 SCT032 BKN180 16/11 Q1010 TEMPO SCT020 RMK BLU TEMPO WHT
  • 211050Z 03008KT 9999 FEW020 SCT032 BKN200 17/11 Q1010 TEMPO SCT020 RMK BLU TEMPO WHT

TAF TAF EGXC
Valide du 21 à 15h jusqu'au 22 à 09h UTC


211344Z 2115/2209 03007KT 9999 SCT025
TEMPO 2115/2118 SCT018
PROB30
TEMPO 2115/2118 4000 +SHRA SCT010 BKN020CB
TEMPO 2118/2209 6000 RA BKN006
PROB40
TEMPO 2120/2209 3000 +RA SCT003



MET'MAP, la Météo Aéronautique d'un coup d'oeil ! - Copyright ORBIFLY Décembre 2007 - Disclaimer

ORBIFLY MET'MAP TEAM :

Programmation & Développement : Alexandra Zaïnal
Sur une idée originale de : Baudouin d'Aumeries
Soutien technique & logistique : Manuel Goepfert
Assistance : Marc-Olivier Méhu




SOURCES & CREDITS :

   NOAA